.
WxDataArchive / Data Records for 2005-12-13
2005-12-12 December 2005 2005-12-14

Data Records for Tuesday, 13 December 2005

Time	Temp	Chill	HIndex	Humid	Dewpt	 Wind 	HiWind	WindDir	Rain 	Barom 
-----	----	-----	------	-----	-----	------	------	-------	-----	----- 
00:00	19.4	19.4	19.4	77	13.4	0	1	292	0.00	30.118 
00:05	19.4	19.4	19.4	77	13.4	0	0	---	0.00	30.118 
00:10	19.4	19.4	19.4	77	13.4	0	1	292	0.00	30.118 
00:15	19.4	19.4	19.4	78	13.7	0	0	---	0.00	30.117 
00:20	19.4	19.4	19.4	78	13.7	0	1	292	0.00	30.117 
00:25	19.4	19.4	19.4	77	13.4	0	1	292	0.00	30.117 
00:30	19.5	19.5	19.5	78	13.8	0	1	292	0.00	30.116 
00:35	19.5	19.5	19.5	78	13.8	0	1	292	0.00	30.116 
00:40	19.5	19.5	19.5	78	13.8	0	1	292	0.00	30.116 
00:45	19.7	19.7	19.7	79	14.3	0	1	292	0.00	30.114 
00:50	19.7	19.7	19.7	79	14.3	0	2	292	0.00	30.114 
00:55	20.0	20.0	20.0	79	14.6	1	2	292	0.00	30.114 
01:00	20.2	20.2	20.2	79	14.8	0	2	292	0.00	30.117 
01:05	20.2	20.2	20.2	79	14.8	0	3	292	0.00	30.117 
01:10	20.3	20.3	20.3	79	14.8	1	3	248	0.00	30.117 
01:15	20.5	20.5	20.5	79	15.0	1	2	248	0.00	30.116 
01:20	20.6	20.6	20.6	79	15.1	1	3	248	0.00	30.116 
01:25	20.6	20.6	20.6	79	15.1	1	3	248	0.00	30.116 
01:30	20.8	20.8	20.8	79	15.3	1	2	248	0.00	30.121 
01:35	20.8	20.8	20.8	80	15.6	1	2	248	0.00	30.121 
01:40	20.8	20.8	20.8	80	15.6	1	2	248	0.00	30.121 
01:45	21.0	21.0	21.0	79	15.5	1	3	248	0.00	30.121 
01:50	21.0	21.0	21.0	79	15.5	1	3	248	0.00	30.121 
01:55	21.0	21.0	21.0	79	15.5	1	2	248	0.00	30.121 
02:00	21.0	21.0	21.0	79	15.5	1	2	248	0.00	30.122 
02:05	21.0	21.0	21.0	79	15.5	1	3	248	0.00	30.122 
02:10	20.8	20.8	20.8	79	15.3	1	3	248	0.00	30.122 
02:15	20.8	20.8	20.8	79	15.3	1	2	248	0.00	30.127 
02:20	20.8	20.8	20.8	79	15.3	1	2	248	0.00	30.127 
02:25	21.0	21.0	21.0	79	15.5	1	3	248	0.00	30.127 
02:30	21.0	21.0	21.0	79	15.5	0	2	248	0.00	30.129 
02:35	20.8	20.8	20.8	79	15.3	1	2	248	0.00	30.129 
02:40	20.6	20.6	20.6	79	15.1	1	2	248	0.00	30.129 
02:45	20.6	20.6	20.6	79	15.1	1	2	248	0.00	30.134 
02:50	20.5	20.5	20.5	79	15.0	0	2	248	0.00	30.134 
02:55	20.3	20.3	20.3	79	14.8	0	1	248	0.00	30.134 
03:00	20.3	20.3	20.3	80	15.1	0	1	248	0.00	30.142 
03:05	20.2	20.2	20.2	80	15.0	1	1	248	0.00	30.142 
03:10	20.3	20.3	20.3	80	15.1	0	3	248	0.00	30.142 
03:15	20.3	20.3	20.3	80	15.1	0	2	225	0.00	30.144 
03:20	20.3	20.3	20.3	80	15.1	1	2	225	0.00	30.144 
03:25	20.5	20.5	20.5	80	15.3	1	4	248	0.00	30.144 
03:30	20.5	20.5	20.5	80	15.3	1	3	248	0.00	30.144 
03:35	20.5	20.5	20.5	80	15.3	1	3	248	0.00	30.144 
03:40	20.5	20.5	20.5	80	15.3	1	3	248	0.00	30.144 
03:45	20.5	20.5	20.5	80	15.3	1	3	248	0.00	30.145 
03:50	20.5	20.5	20.5	80	15.3	1	2	248	0.00	30.145 
03:55	20.5	20.5	20.5	80	15.3	1	2	248	0.00	30.145 
04:00	20.5	20.5	20.5	79	15.0	1	4	225	0.00	30.146 
04:05	20.6	20.6	20.6	79	15.1	1	3	248	0.00	30.146 
04:10	20.6	20.6	20.6	79	15.1	1	3	248	0.00	30.146 
04:15	20.6	20.6	20.6	79	15.1	1	2	248	0.00	30.150 
04:20	20.6	20.6	20.6	79	15.1	1	3	248	0.00	30.150 
04:25	20.6	20.6	20.6	79	15.1	1	3	248	0.00	30.150 
04:30	20.6	20.6	20.6	79	15.1	1	2	248	0.00	30.147 
04:35	20.6	20.6	20.6	79	15.1	1	3	248	0.00	30.147 
04:40	20.6	20.6	20.6	79	15.1	0	2	248	0.00	30.147 
04:45	20.6	20.6	20.6	79	15.1	0	2	248	0.00	30.147 
04:50	20.6	20.6	20.6	79	15.1	0	1	248	0.00	30.147 
04:55	20.6	20.6	20.6	79	15.1	1	3	248	0.00	30.147 
05:00	20.8	20.8	20.8	79	15.3	1	3	248	0.00	30.152 
05:05	20.8	20.8	20.8	79	15.3	0	2	248	0.00	30.152 
05:10	20.8	20.8	20.8	79	15.3	1	2	248	0.00	30.152 
05:15	21.0	21.0	21.0	77	14.9	1	5	248	0.00	30.151 
05:20	21.0	21.0	21.0	77	14.9	1	3	248	0.00	30.151 
05:25	21.0	21.0	21.0	77	14.9	1	4	248	0.00	30.151 
05:30	21.1	21.1	21.1	77	15.0	1	4	248	0.00	30.160 
05:35	21.1	21.1	21.1	77	15.0	1	2	248	0.00	30.160 
05:40	21.1	21.1	21.1	77	15.0	1	2	248	0.00	30.160 
05:45	21.1	21.1	21.1	77	15.0	1	2	248	0.00	30.165 
05:50	21.1	21.1	21.1	77	15.0	0	1	248	0.00	30.165 
05:55	21.1	21.1	21.1	77	15.0	1	3	248	0.00	30.165 
06:00	21.1	21.1	21.1	77	15.0	1	3	248	0.00	30.173 
06:05	21.1	21.1	21.1	77	15.0	1	3	248	0.00	30.173 
06:10	21.3	21.3	21.3	76	14.9	2	4	248	0.00	30.173 
06:15	21.3	21.3	21.3	76	14.9	1	2	248	0.00	30.183 
06:20	21.3	21.3	21.3	76	14.9	1	3	248	0.00	30.183 
06:25	21.3	21.3	21.3	76	14.9	1	3	248	0.00	30.183 
06:30	21.4	21.4	21.4	76	15.0	1	2	248	0.00	30.190 
06:35	21.4	21.4	21.4	76	15.0	1	3	248	0.00	30.190 
06:40	21.4	21.4	21.4	76	15.0	1	3	248	0.00	30.190 
06:45	21.4	21.4	21.4	76	15.0	1	4	248	0.00	30.198 
06:50	21.6	21.6	21.6	75	14.9	1	4	248	0.00	30.198 
06:55	21.6	21.6	21.6	75	14.9	2	4	248	0.00	30.198 
07:00	21.6	21.6	21.6	75	14.9	1	3	248	0.00	30.200 
07:05	21.8	21.8	21.8	75	15.1	1	2	248	0.00	30.200 
07:10	21.8	21.8	21.8	75	15.1	1	2	248	0.00	30.200 
07:15	21.6	21.6	21.6	75	14.9	1	3	248	0.00	30.199 
07:20	21.6	21.6	21.6	75	14.9	1	2	248	0.00	30.199 
07:25	21.6	21.6	21.6	75	14.9	0	1	248	0.00	30.199 
07:30	21.4	21.4	21.4	75	14.7	1	3	248	0.00	30.205 
07:35	21.4	21.4	21.4	75	14.7	1	3	248	0.00	30.205 
07:40	21.4	21.4	21.4	75	14.7	1	3	248	0.00	30.205 
07:45	21.3	21.3	21.3	74	14.3	0	2	248	0.00	30.206 
07:50	21.1	21.1	21.1	74	14.1	0	2	248	0.00	30.206 
07:55	20.8	20.8	20.8	75	14.1	0	1	248	0.00	30.206 
08:00	20.5	20.5	20.5	75	13.9	0	1	248	0.00	30.208 
08:05	20.2	20.2	20.2	75	13.6	0	1	248	0.00	30.208 
08:10	20.0	20.0	20.0	76	13.7	0	1	248	0.00	30.208 
08:15	20.0	20.0	20.0	76	13.7	0	2	248	0.00	30.213 
08:20	20.0	20.0	20.0	76	13.7	0	1	248	0.00	30.213 
08:25	20.3	20.3	20.3	77	14.3	1	2	248	0.00	30.213 
08:30	20.6	20.6	20.6	76	14.3	1	3	248	0.00	30.220 
08:35	21.1	21.1	21.1	76	14.7	1	3	248	0.00	30.220 
08:40	21.4	21.4	21.4	75	14.7	1	2	248	0.00	30.220 
08:45	21.9	21.9	21.9	74	14.9	2	3	248	0.00	30.222 
08:50	22.1	22.1	22.1	74	15.1	1	5	248	0.00	30.222 
08:55	22.2	22.2	22.2	74	15.2	1	4	225	0.00	30.222 
09:00	22.4	22.4	22.4	73	15.1	1	3	248	0.00	30.220 
09:05	22.4	22.4	22.4	73	15.1	0	1	248	0.00	30.220 
09:10	22.4	22.4	22.4	73	15.1	0	1	248	0.00	30.220 
09:15	22.4	22.4	22.4	73	15.1	0	1	248	0.00	30.223 
09:20	22.4	22.4	22.4	73	15.1	0	2	248	0.00	30.223 
09:25	22.7	22.7	22.7	73	15.4	1	2	248	0.00	30.223 
09:30	22.9	22.9	22.9	73	15.6	1	3	248	0.00	30.225 
09:35	23.2	23.2	23.2	73	15.9	1	2	248	0.00	30.225 
09:40	23.3	23.3	23.3	73	15.9	0	1	248	0.00	30.225 
09:45	23.6	23.6	23.6	73	16.2	0	0	---	0.00	30.222 
09:50	23.8	23.8	23.8	73	16.4	0	1	248	0.00	30.222 
09:55	24.1	24.1	24.1	73	16.7	0	1	248	0.00	30.222 
10:00	24.5	24.5	24.5	72	16.8	0	2	248	0.00	30.228 
10:05	24.8	24.8	24.8	72	17.1	0	2	248	0.00	30.228 
10:10	25.1	25.1	25.1	71	17.0	0	2	248	0.00	30.228 
10:15	25.3	25.3	25.3	71	17.2	1	3	248	0.00	30.234 
10:20	25.6	25.6	25.6	71	17.5	1	3	248	0.00	30.234 
10:25	25.7	25.7	25.7	71	17.6	0	1	248	0.00	30.234 
10:30	25.8	25.8	25.8	71	17.7	0	1	248	0.00	30.232 
10:35	26.1	26.1	26.1	70	17.7	0	1	248	0.00	30.232 
10:40	26.4	26.4	26.4	70	18.0	1	2	225	0.00	30.232 
10:45	26.7	26.7	26.7	69	17.9	1	3	248	0.00	30.239 
10:50	27.0	27.0	27.0	69	18.2	0	1	248	0.00	30.239 
10:55	27.3	27.3	27.3	68	18.2	0	3	248	0.00	30.239 
11:00	27.6	27.6	27.6	68	18.4	1	3	248	0.00	30.245 
11:05	27.9	27.9	27.9	67	18.4	1	2	248	0.00	30.245 
11:10	28.2	28.2	28.2	67	18.7	1	3	248	0.00	30.245 
11:15	28.5	28.5	28.5	66	18.6	1	2	248	0.00	30.239 
11:20	29.0	29.0	29.0	66	19.1	1	2	248	0.00	30.239 
11:25	29.4	29.4	29.4	65	19.1	1	2	248	0.00	30.239 
11:30	29.8	29.8	29.8	65	19.5	1	3	248	0.00	30.241 
11:35	29.8	29.8	29.8	64	19.1	1	3	270	0.00	30.241 
11:40	30.0	30.0	30.0	65	19.7	0	2	202	0.00	30.241 
11:45	30.1	30.1	30.1	64	19.4	0	2	225	0.00	30.243 
11:50	30.1	30.1	30.1	65	19.8	1	3	248	0.00	30.243 
11:55	30.1	30.1	30.1	65	19.8	1	2	248	0.00	30.243 
12:00	30.3	30.3	30.3	64	19.6	0	2	248	0.00	30.243 
12:05	30.7	30.7	30.7	64	20.0	0	4	248	0.00	30.243 
12:10	30.6	30.6	30.6	65	20.3	1	5	248	0.00	30.243 
12:15	30.7	30.7	30.7	62	19.2	1	4	248	0.00	30.244 
12:20	30.7	30.7	30.7	62	19.2	1	3	248	0.00	30.244 
12:25	30.9	30.9	30.9	62	19.4	1	4	248	0.00	30.244 
12:30	30.7	30.7	30.7	62	19.2	2	3	248	0.00	30.245 
12:35	30.7	30.7	30.7	63	19.6	1	4	248	0.00	30.245 
12:40	30.7	30.7	30.7	63	19.6	1	3	248	0.00	30.245 
12:45	30.9	30.9	30.9	63	19.8	1	3	248	0.00	30.244 
12:50	30.9	30.9	30.9	62	19.4	1	4	248	0.00	30.244 
12:55	30.4	30.4	30.4	62	19.0	2	5	248	0.00	30.244 
13:00	30.3	30.3	30.3	64	19.6	1	2	248	0.00	30.239 
13:05	30.4	30.4	30.4	62	19.0	1	3	248	0.00	30.239 
13:10	30.7	30.7	30.7	63	19.6	0	2	225	0.00	30.239 
13:15	30.7	30.7	30.7	63	19.6	1	4	248	0.00	30.235 
13:20	30.7	30.7	30.7	62	19.2	1	3	248	0.00	30.235 
13:25	30.7	30.7	30.7	64	20.0	0	3	270	0.00	30.235 
13:30	30.9	30.9	30.9	63	19.8	0	2	270	0.00	30.230 
13:35	31.0	31.0	31.0	63	19.9	1	3	270	0.00	30.230 
13:40	31.0	31.0	31.0	64	20.3	0	2	270	0.00	30.230 
13:45	30.9	30.9	30.9	64	20.2	1	3	270	0.00	30.229 
13:50	30.7	30.7	30.7	63	19.6	1	3	270	0.00	30.229 
13:55	30.6	30.6	30.6	65	20.3	0	2	248	0.00	30.229 
14:00	30.6	30.6	30.6	64	19.9	1	3	248	0.00	30.230 
14:05	30.3	30.3	30.3	63	19.2	1	3	112	0.00	30.230 
14:10	30.1	30.1	30.1	63	19.0	1	5	248	0.00	30.230 
14:15	29.8	29.8	29.8	65	19.5	2	5	248	0.00	30.234 
14:20	29.8	29.8	29.8	65	19.5	1	3	248	0.00	30.234 
14:25	29.8	29.8	29.8	66	19.8	1	3	248	0.00	30.234 
14:30	30.0	30.0	30.0	68	20.7	0	2	248	0.00	30.235 
14:35	30.0	30.0	30.0	67	20.4	1	3	90	0.00	30.235 
14:40	29.8	29.8	29.8	68	20.5	1	2	112	0.00	30.235 
14:45	29.7	29.7	29.7	68	20.5	1	3	112	0.00	30.244 
14:50	29.4	29.4	29.4	69	20.5	1	3	90	0.00	30.244 
14:55	29.4	29.4	29.4	68	20.2	1	4	90	0.00	30.244 
15:00	29.3	29.3	29.3	68	20.1	1	2	112	0.00	30.248 
15:05	29.3	29.3	29.3	67	19.7	1	3	112	0.00	30.248 
15:10	29.1	29.1	29.1	68	19.9	1	3	202	0.00	30.248 
15:15	28.8	28.8	28.8	70	20.3	1	3	90	0.00	30.254 
15:20	28.7	28.7	28.7	70	20.2	1	2	90	0.00	30.254 
15:25	28.5	28.5	28.5	69	19.6	1	5	225	0.00	30.254 
15:30	28.4	28.4	28.4	71	20.2	1	3	225	0.00	30.259 
15:35	28.2	28.2	28.2	72	20.4	1	3	90	0.00	30.259 
15:40	28.1	28.1	28.1	73	20.6	1	3	248	0.00	30.259 
15:45	27.9	27.9	27.9	73	20.4	1	2	248	0.00	30.260 
15:50	27.9	27.9	27.9	73	20.4	0	2	248	0.00	30.260 
15:55	27.9	27.9	27.9	73	20.4	1	3	248	0.00	30.260 
16:00	27.8	27.8	27.8	74	20.6	1	2	135	0.00	30.258 
16:05	27.8	27.8	27.8	73	20.3	0	1	135	0.00	30.258 
16:10	27.6	27.6	27.6	74	20.4	0	1	135	0.00	30.258 
16:15	27.6	27.6	27.6	73	20.1	0	1	135	0.00	30.257 
16:20	27.6	27.6	27.6	73	20.1	0	1	90	0.00	30.257 
16:25	27.6	27.6	27.6	73	20.1	0	1	90	0.00	30.257 
16:30	27.5	27.5	27.5	73	20.0	1	3	90	0.00	30.257 
16:35	27.3	27.3	27.3	73	19.8	1	2	112	0.00	30.257 
16:40	27.3	27.3	27.3	73	19.8	1	2	112	0.00	30.257 
16:45	27.3	27.3	27.3	74	20.1	1	2	112	0.00	30.251 
16:50	27.2	27.2	27.2	74	20.0	1	3	112	0.00	30.251 
16:55	27.2	27.2	27.2	74	20.0	0	1	112	0.00	30.251 
17:00	27.0	27.0	27.0	74	19.8	0	1	112	0.00	30.256 
17:05	27.0	27.0	27.0	74	19.8	0	2	112	0.00	30.256 
17:10	26.9	26.9	26.9	74	19.7	1	2	112	0.00	30.256 
17:15	26.9	26.9	26.9	75	20.1	0	1	90	0.00	30.260 
17:20	26.9	26.9	26.9	75	20.1	0	2	90	0.00	30.260 
17:25	26.7	26.7	26.7	75	19.9	1	2	90	0.00	30.260 
17:30	26.7	26.7	26.7	75	19.9	0	2	112	0.00	30.254 
17:35	26.7	26.7	26.7	75	19.9	0	1	112	0.00	30.254 
17:40	26.6	26.6	26.6	75	19.8	0	2	112	0.00	30.254 
17:45	26.6	26.6	26.6	76	20.1	1	3	112	0.00	30.263 
17:50	26.6	26.6	26.6	76	20.1	1	2	112	0.00	30.263 
17:55	26.6	26.6	26.6	77	20.4	0	1	112	0.00	30.263 
18:00	26.6	26.6	26.6	74	19.5	1	3	112	0.00	30.266 
18:05	26.6	26.6	26.6	76	20.1	0	2	112	0.00	30.266 
18:10	26.6	26.6	26.6	76	20.1	0	1	112	0.00	30.266 
18:15	26.6	26.6	26.6	76	20.1	1	2	112	0.00	30.267 
18:20	26.6	26.6	26.6	77	20.4	0	2	112	0.00	30.267 
18:25	26.6	26.6	26.6	75	19.8	1	4	112	0.00	30.267 
18:30	26.6	26.6	26.6	75	19.8	0	2	90	0.00	30.268 
18:35	26.6	26.6	26.6	75	19.8	1	2	112	0.00	30.268 
18:40	26.6	26.6	26.6	74	19.5	1	3	112	0.00	30.268 
18:45	26.7	26.7	26.7	74	19.5	1	2	90	0.00	30.278 
18:50	26.7	26.7	26.7	74	19.5	1	2	112	0.00	30.278 
18:55	26.7	26.7	26.7	74	19.5	0	1	112	0.00	30.278 
19:00	26.7	26.7	26.7	75	19.9	1	3	112	0.00	30.275 
19:05	26.6	26.6	26.6	76	20.1	1	4	90	0.00	30.275 
19:10	26.6	26.6	26.6	78	20.7	1	3	112	0.00	30.275 
19:15	26.4	26.4	26.4	78	20.5	1	3	112	0.00	30.281 
19:20	26.3	26.3	26.3	78	20.4	0	2	135	0.00	30.281 
19:25	26.1	26.1	26.1	79	20.5	0	1	135	0.00	30.281 
19:30	26.1	26.1	26.1	79	20.5	1	2	135	0.00	30.279 
19:35	26.0	26.0	26.0	80	20.7	0	2	135	0.00	30.279 
19:40	26.0	26.0	26.0	80	20.7	0	2	135	0.00	30.279 
19:45	25.8	25.8	25.8	81	20.8	0	2	135	0.00	30.274 
19:50	25.8	25.8	25.8	81	20.8	0	2	135	0.00	30.274 
19:55	25.8	25.8	25.8	81	20.8	0	1	135	0.00	30.274 
20:00	25.8	25.8	25.8	81	20.8	1	2	112	0.00	30.272 
20:05	25.7	25.7	25.7	81	20.7	1	3	112	0.00	30.272 
20:10	25.7	25.7	25.7	81	20.7	1	2	112	0.00	30.272 
20:15	25.6	25.6	25.6	81	20.6	1	3	112	0.00	30.267 
20:20	25.6	25.6	25.6	81	20.6	1	2	112	0.00	30.267 
20:25	25.6	25.6	25.6	81	20.6	0	1	112	0.00	30.267 
20:30	25.6	25.6	25.6	81	20.6	0	2	112	0.00	30.267 
20:35	25.6	25.6	25.6	81	20.6	0	2	135	0.00	30.267 
20:40	25.6	25.6	25.6	81	20.6	1	3	135	0.00	30.267 
20:45	25.6	25.6	25.6	80	20.3	1	2	112	0.00	30.264 
20:50	25.6	25.6	25.6	79	20.0	1	2	112	0.00	30.264 
20:55	25.7	25.7	25.7	80	20.4	1	2	112	0.00	30.264 
21:00	25.7	25.7	25.7	79	20.1	1	3	112	0.00	30.265 
21:05	25.7	25.7	25.7	79	20.1	1	3	112	0.00	30.265 
21:10	25.6	25.6	25.6	78	19.7	1	3	112	0.00	30.265 
21:15	25.6	25.6	25.6	78	19.7	2	5	90	0.00	30.245 
21:20	25.4	25.4	25.4	77	19.2	2	4	90	0.00	30.245 
21:25	25.4	25.4	25.4	77	19.2	1	3	90	0.00	30.245 
21:30	25.3	25.3	25.3	77	19.1	1	3	90	0.00	30.256 
21:35	25.3	25.3	25.3	77	19.1	1	3	112	0.00	30.256 
21:40	25.1	25.1	25.1	77	18.9	2	4	90	0.00	30.256 
21:45	25.1	25.1	25.1	77	18.9	1	2	90	0.00	30.251 
21:50	25.1	25.1	25.1	77	18.9	1	3	90	0.00	30.251 
21:55	25.1	25.1	25.1	76	18.6	2	4	90	0.00	30.251 
22:00	25.1	25.1	25.1	76	18.6	3	5	90	0.00	30.240 
22:05	25.0	25.0	25.0	75	18.2	2	7	90	0.00	30.240 
22:10	24.8	24.8	24.8	75	18.0	3	5	112	0.00	30.240 
22:15	24.5	24.5	24.5	74	17.4	3	5	112	0.00	30.232 
22:20	24.4	24.4	24.4	74	17.3	2	4	112	0.00	30.232 
22:25	24.1	24.1	24.1	75	17.3	2	4	112	0.00	30.232 
22:30	23.8	23.8	23.8	75	17.1	2	4	112	0.00	30.241 
22:35	23.5	23.5	23.5	75	16.8	2	4	112	0.00	30.241 
22:40	23.2	23.2	23.2	76	16.8	2	5	90	0.00	30.241 
22:45	22.9	22.9	22.9	76	16.5	2	5	112	0.00	30.246 
22:50	22.7	22.7	22.7	77	16.6	2	5	112	0.00	30.246 
22:55	22.5	22.5	22.5	77	16.4	3	4	112	0.00	30.246 
23:00	22.2	22.2	22.2	77	16.1	3	5	112	0.00	30.243 
23:05	21.9	21.9	21.9	77	15.8	2	4	90	0.00	30.243 
23:10	21.8	21.8	21.8	77	15.7	2	6	112	0.00	30.243 
23:15	21.6	21.6	21.6	77	15.5	2	5	112	0.00	30.247 
23:20	21.4	21.4	21.4	77	15.3	2	4	90	0.00	30.247 
23:25	21.3	21.3	21.3	78	15.5	2	4	90	0.00	30.247 
23:30	21.3	21.3	21.3	78	15.5	2	4	112	0.00	30.246 
23:35	21.1	21.1	21.1	78	15.3	2	4	90	0.00	30.246 
23:40	20.8	20.8	20.8	78	15.0	2	3	90	0.00	30.246 
23:45	20.6	20.6	20.6	78	14.8	2	5	90	0.00	30.240 
23:50	20.5	20.5	20.5	78	14.8	2	4	112	0.00	30.240 
23:55	20.3	20.3	20.3	78	14.6	2	3	112	0.00	30.240 

CoCoRaHS
IN-AL-39
A2 Web Hosting
Creative Commons License
GoDaddy
Look for:

loaded 2017-12-10 21:29:11 • last modified 2010-11-18 10:43:29
Privacy PolicyDisclaimer
• wx.awcolley.com is powered by PmWiki v.2002016 •
• all content (unless otherwise noted) © 2017 A W Colley